createdAt,value
2022-10-02T00:01:27.003Z,100477.84
2022-10-02T00:03:55.431Z,100481.53
2022-10-02T00:06:26.855Z,100482.59
2022-10-02T00:12:15.405Z,100493.78
2022-10-02T00:14:46.612Z,100504.44
2022-10-02T00:17:20.318Z,100504.72
2022-10-02T00:19:48.549Z,100509.97
2022-10-02T00:22:34.957Z,100521.59
2022-10-02T00:25:09.518Z,100505.81
2022-10-02T00:28:07.586Z,100519.34
2022-10-02T00:30:46.320Z,100528.03
2022-10-02T00:33:25.106Z,100517.25
2022-10-02T00:36:04.687Z,100525.38
2022-10-02T00:38:45.908Z,100521.78
2022-10-02T00:41:47.327Z,100510.97
2022-10-02T00:44:35.586Z,100514.44
2022-10-02T00:47:11.116Z,100511.66
2022-10-02T00:50:00.108Z,100512.47
2022-10-02T00:52:55.512Z,100522.03
2022-10-02T00:55:58.288Z,100514.88
2022-10-02T00:58:37.794Z,100528.31
2022-10-02T01:01:13.083Z,100533.63
2022-10-02T01:03:42.181Z,100533.66
2022-10-02T01:06:11.507Z,100533.78
2022-10-02T01:08:41.829Z,100536.56
2022-10-02T01:11:09.933Z,100514.44
2022-10-02T01:13:38.305Z,100511.00
2022-10-02T01:16:14.254Z,100507.75
2022-10-02T01:18:45.870Z,100514.81
2022-10-02T01:21:19.689Z,100510.19
2022-10-02T01:23:56.489Z,100510.88
2022-10-02T01:26:26.005Z,100516.44
2022-10-02T01:28:54.353Z,100507.47
2022-10-02T01:31:24.577Z,100505.50
2022-10-02T01:33:53.616Z,100501.84
2022-10-02T01:36:23.125Z,100509.03
2022-10-02T01:38:52.777Z,100516.84
2022-10-02T01:41:20.809Z,100519.47
2022-10-02T01:43:55.552Z,100515.72
2022-10-02T01:46:32.601Z,100524.59
2022-10-02T01:49:33.954Z,100524.63
2022-10-02T01:52:36.592Z,100526.38
2022-10-02T01:55:16.061Z,100529.97
2022-10-02T01:57:58.087Z,100528.19
2022-10-02T02:00:31.318Z,100509.56
2022-10-02T02:03:11.227Z,100516.53
2022-10-02T02:05:49.580Z,100521.78
2022-10-02T02:08:28.618Z,100519.91
2022-10-02T02:11:11.107Z,100522.63
2022-10-02T02:13:46.682Z,100527.19
2022-10-02T02:16:23.237Z,100532.63
2022-10-02T02:19:05.315Z,100530.81
2022-10-02T02:21:36.453Z,100523.63
2022-10-02T02:24:09.191Z,100529.63
2022-10-02T02:26:39.000Z,100514.75
2022-10-02T02:29:09.595Z,100527.06
2022-10-02T02:31:47.497Z,100520.09
2022-10-02T02:34:20.172Z,100525.06
2022-10-02T02:36:52.894Z,100526.75
2022-10-02T02:39:26.999Z,100517.91
2022-10-02T02:42:00.133Z,100517.09
2022-10-02T02:44:34.038Z,100514.44
2022-10-02T02:47:12.887Z,100509.19
2022-10-02T02:49:52.608Z,100505.63
2022-10-02T02:52:26.905Z,100508.19
2022-10-02T02:55:03.438Z,100507.06
2022-10-02T02:57:36.135Z,100506.25
2022-10-02T03:00:07.700Z,100507.06
2022-10-02T03:02:37.205Z,100507.16
2022-10-02T03:05:12.564Z,100515.09
2022-10-02T03:07:50.807Z,100524.06
2022-10-02T03:10:28.994Z,100526.88
2022-10-02T03:13:08.825Z,100540.22
2022-10-02T03:15:45.900Z,100530.41
2022-10-02T03:18:36.337Z,100538.47
2022-10-02T03:21:13.459Z,100526.81
2022-10-02T03:23:54.953Z,100523.22
2022-10-02T03:26:30.700Z,100519.59
2022-10-02T03:29:02.543Z,100539.22
2022-10-02T03:31:33.320Z,100538.41
2022-10-02T03:34:04.892Z,100538.41
2022-10-02T03:36:34.272Z,100541.09
2022-10-02T03:41:52.725Z,100534.19
2022-10-02T03:44:21.085Z,100536.78
2022-10-02T03:46:51.537Z,100527.97
2022-10-02T03:49:21.711Z,100534.06
2022-10-02T03:51:49.662Z,100539.53
2022-10-02T03:54:20.071Z,100550.25
2022-10-02T03:56:55.687Z,100547.56
2022-10-02T03:59:36.641Z,100544.00
2022-10-02T04:02:10.404Z,100550.25
2022-10-02T04:04:47.516Z,100552.97
2022-10-02T04:07:24.993Z,100550.25
2022-10-02T04:10:00.337Z,100552.03
2022-10-02T04:12:34.969Z,100550.25
2022-10-02T04:15:14.523Z,100555.53
2022-10-02T04:17:48.146Z,100528.50
2022-10-02T04:20:27.619Z,100553.84
2022-10-02T04:23:02.191Z,100553.03
2022-10-02T04:25:37.431Z,100560.19
2022-10-02T04:28:08.903Z,100550.41
2022-10-02T04:30:36.999Z,100554.91
2022-10-02T04:33:12.677Z,100561.19
2022-10-02T04:35:51.040Z,100551.47
2022-10-02T04:38:50.142Z,100541.00
2022-10-02T04:41:40.445Z,100549.97
2022-10-02T04:44:26.619Z,100542.09
2022-10-02T04:47:25.368Z,100546.09
2022-10-02T04:50:12.543Z,100545.47
2022-10-02T04:53:12.256Z,100546.59
2022-10-02T04:55:58.251Z,100552.09
2022-10-02T04:58:47.927Z,100544.28
2022-10-02T05:01:27.055Z,100549.78
2022-10-02T05:04:14.165Z,100546.31
2022-10-02T05:06:59.545Z,100549.97
2022-10-02T05:09:34.785Z,100543.97
2022-10-02T05:13:28.057Z,100545.91
2022-10-02T05:16:10.355Z,100551.25
2022-10-02T05:18:54.399Z,100554.78
2022-10-02T05:21:40.303Z,100556.66
2022-10-02T05:25:04.533Z,100549.53
2022-10-02T05:28:00.141Z,100545.16
2022-10-02T05:30:39.239Z,100543.47
2022-10-02T05:33:22.580Z,100541.66
2022-10-02T05:36:07.364Z,100536.31
2022-10-02T05:39:02.432Z,100531.81
2022-10-02T05:41:41.825Z,100539.84
2022-10-02T05:44:16.414Z,100543.28
2022-10-02T05:46:52.162Z,100538.00
2022-10-02T05:49:23.365Z,100532.69
2022-10-02T05:51:59.695Z,100539.78
2022-10-02T05:54:40.885Z,100545.19
2022-10-02T05:57:17.797Z,100554.97
2022-10-02T05:59:54.225Z,100549.63
2022-10-02T06:02:39.346Z,100552.28
2022-10-02T06:05:17.785Z,100554.09
2022-10-02T06:07:50.570Z,100555.06
2022-10-02T06:10:23.073Z,100563.00
2022-10-02T06:12:57.258Z,100570.94
2022-10-02T06:15:31.382Z,100570.91
2022-10-02T06:18:24.835Z,100579.75
2022-10-02T06:20:56.699Z,100574.47
2022-10-02T06:23:31.289Z,100561.97
2022-10-02T06:26:29.295Z,100562.66
2022-10-02T06:29:04.533Z,100561.72
2022-10-02T06:31:41.101Z,100558.22
2022-10-02T06:34:13.336Z,100548.59
2022-10-02T06:37:05.309Z,100548.50
2022-10-02T06:39:55.899Z,100554.78
2022-10-02T06:42:35.897Z,100554.78
2022-10-02T06:45:19.994Z,100553.09
2022-10-02T06:48:00.324Z,100547.72
2022-10-02T06:50:43.066Z,100553.06
2022-10-02T06:53:24.717Z,100562.66
2022-10-02T06:56:01.239Z,100568.06
2022-10-02T06:58:42.418Z,100533.09
2022-10-02T07:01:19.750Z,100567.13
2022-10-02T07:04:09.761Z,100564.53
2022-10-02T07:06:55.019Z,100559.22
2022-10-02T07:09:39.012Z,100558.13
2022-10-02T07:12:24.195Z,100556.34
2022-10-02T07:15:09.959Z,100568.78
2022-10-02T07:17:51.925Z,100563.44
2022-10-02T07:20:39.766Z,100571.50
2022-10-02T07:23:35.820Z,100571.44
2022-10-02T07:26:32.407Z,100560.69
2022-10-02T07:29:22.731Z,100572.25
2022-10-02T07:32:03.092Z,100585.53
2022-10-02T07:34:40.008Z,100579.19
2022-10-02T07:37:18.999Z,100571.97
2022-10-02T07:40:14.272Z,100572.78
2022-10-02T07:42:58.015Z,100587.09
2022-10-02T07:45:30.372Z,100582.66
2022-10-02T07:48:24.252Z,100580.00
2022-10-02T07:51:04.267Z,100582.75
2022-10-02T07:53:42.996Z,100591.56
2022-10-02T07:56:20.280Z,100578.38
2022-10-02T07:58:54.708Z,100588.78
2022-10-02T08:01:27.074Z,100596.59
2022-10-02T08:03:58.324Z,100582.34
2022-10-02T08:06:27.015Z,100578.88
2022-10-02T08:09:02.892Z,100586.91
2022-10-02T08:11:36.952Z,100585.06
2022-10-02T08:14:11.888Z,100570.94
2022-10-02T08:16:47.868Z,100538.63
2022-10-02T08:19:17.966Z,100573.59
2022-10-02T08:21:50.351Z,100573.53
2022-10-02T08:24:25.399Z,100576.09
2022-10-02T08:26:59.062Z,100575.34
2022-10-02T08:29:40.596Z,100576.22
2022-10-02T08:32:11.613Z,100583.38
2022-10-02T08:34:44.109Z,100582.56
2022-10-02T08:37:28.853Z,100580.75
2022-10-02T08:40:33.338Z,100577.78
2022-10-02T08:43:45.096Z,100570.44
2022-10-02T08:46:46.873Z,100575.41
2022-10-02T08:49:46.947Z,100567.13
2022-10-02T08:52:37.020Z,100561.94
2022-10-02T08:55:40.096Z,100578.44
2022-10-02T08:58:40.568Z,100585.66
2022-10-02T09:01:25.833Z,100581.75
2022-10-02T09:04:44.403Z,100568.34
2022-10-02T09:07:45.680Z,100529.25
2022-10-02T09:10:48.564Z,100585.09
2022-10-02T09:13:54.267Z,100582.13
2022-10-02T09:16:34.547Z,100565.19
2022-10-02T09:19:11.918Z,100563.75
2022-10-02T09:21:56.200Z,100576.69
2022-10-02T09:24:52.863Z,100577.19
2022-10-02T09:27:53.855Z,100561.75
2022-10-02T09:30:33.594Z,100555.03
2022-10-02T09:33:45.058Z,100572.13
2022-10-02T09:36:40.868Z,100585.56
2022-10-02T09:39:35.198Z,100573.00
2022-10-02T09:42:54.912Z,100576.94
2022-10-02T09:45:56.499Z,100575.91
2022-10-02T09:48:59.380Z,100571.56
2022-10-02T09:52:03.295Z,100570.69
2022-10-02T09:55:17.197Z,100571.78
2022-10-02T09:58:31.395Z,100566.44
2022-10-02T10:01:23.061Z,100574.97
2022-10-02T10:04:17.802Z,100578.50
2022-10-02T10:07:18.977Z,100585.75
2022-10-02T10:10:18.756Z,100592.97
2022-10-02T10:14:33.995Z,100590.34
2022-10-02T10:17:27.097Z,100579.63
2022-10-02T10:20:18.000Z,100573.78
2022-10-02T10:23:31.626Z,100579.81
2022-10-02T10:26:49.501Z,100564.69
2022-10-02T10:29:45.478Z,100557.31
2022-10-02T10:32:52.489Z,100574.22
2022-10-02T10:36:00.410Z,100571.13
2022-10-02T10:38:46.259Z,100588.13
2022-10-02T10:41:59.856Z,100574.47
2022-10-02T10:45:09.554Z,100576.59
2022-10-02T10:48:11.882Z,100569.72
2022-10-02T10:50:51.317Z,100587.28
2022-10-02T10:53:37.995Z,100587.56
2022-10-02T10:56:36.831Z,100586.28
2022-10-02T10:59:59.438Z,100587.66
2022-10-02T11:03:15.123Z,100584.16
2022-10-02T11:06:22.229Z,100583.97
2022-10-02T11:09:42.884Z,100590.09
2022-10-02T11:12:41.270Z,100581.03
2022-10-02T11:15:25.826Z,100599.44
2022-10-02T11:18:17.078Z,100606.03
2022-10-02T11:21:10.695Z,100598.66
2022-10-02T11:24:02.557Z,100593.06
2022-10-02T11:26:44.847Z,100592.88
2022-10-02T11:29:38.232Z,100593.47
2022-10-02T11:32:33.668Z,100595.00
2022-10-02T11:35:33.485Z,100599.03
2022-10-02T11:38:23.314Z,100594.81
2022-10-02T11:41:14.040Z,100613.44
2022-10-02T11:44:05.391Z,100610.28
2022-10-02T11:46:48.550Z,100606.66
2022-10-02T11:49:52.035Z,100614.78
2022-10-02T11:52:53.749Z,100610.22
2022-10-02T11:55:49.456Z,100605.78
2022-10-02T11:58:32.497Z,100601.38
2022-10-02T12:01:14.999Z,100598.63
2022-10-02T12:03:54.009Z,100592.34
2022-10-02T12:06:40.570Z,100595.94
2022-10-02T12:09:22.028Z,100594.88
2022-10-02T12:12:07.421Z,100601.81
2022-10-02T12:14:43.412Z,100604.16
2022-10-02T12:17:42.383Z,100598.19
2022-10-02T12:20:39.905Z,100585.16
2022-10-02T12:23:43.864Z,100571.69
2022-10-02T12:26:45.339Z,100589.06
2022-10-02T12:29:25.339Z,100589.34
2022-10-02T12:32:00.584Z,100579.22
2022-10-02T12:34:44.291Z,100577.38
2022-10-02T12:37:19.382Z,100579.66
2022-10-02T12:39:58.195Z,100590.09
2022-10-02T12:43:00.370Z,100576.53
2022-10-02T12:46:10.148Z,100587.03
2022-10-02T12:48:58.451Z,100565.31
2022-10-02T12:51:41.609Z,100593.16
2022-10-02T12:54:40.192Z,100591.53
2022-10-02T12:57:48.058Z,100581.28
2022-10-02T13:00:18.315Z,100575.19
2022-10-02T13:03:16.035Z,100588.72
2022-10-02T13:06:21.676Z,100594.53
2022-10-02T13:09:05.303Z,100600.06
2022-10-02T13:11:54.941Z,100595.97
2022-10-02T13:14:40.269Z,100597.13
2022-10-02T13:17:23.932Z,100599.28
2022-10-02T13:20:04.366Z,100604.81
2022-10-02T13:22:46.614Z,100609.56
2022-10-02T13:25:34.449Z,100602.72
2022-10-02T13:28:21.456Z,100596.44
2022-10-02T13:30:58.342Z,100590.38
2022-10-02T13:33:42.305Z,100594.81
2022-10-02T13:36:23.696Z,100591.66
2022-10-02T13:39:16.957Z,100591.03
2022-10-02T13:42:08.475Z,100603.44
2022-10-02T13:44:49.817Z,100596.69
2022-10-02T13:47:43.985Z,100585.72
2022-10-02T13:50:39.784Z,100581.34
2022-10-02T13:53:47.418Z,100600.72
2022-10-02T13:56:29.504Z,100603.63
2022-10-02T13:59:16.933Z,100595.72
2022-10-02T14:01:57.946Z,100594.63
2022-10-02T14:04:49.483Z,100586.00
2022-10-02T14:07:40.526Z,100595.91
2022-10-02T14:10:20.369Z,100591.19
2022-10-02T14:13:06.565Z,100589.25
2022-10-02T14:15:54.211Z,100587.94
2022-10-02T14:18:55.254Z,100591.81
2022-10-02T14:21:31.050Z,100590.63
2022-10-02T14:24:19.485Z,100588.47
2022-10-02T14:27:04.867Z,100599.50
2022-10-02T14:29:45.879Z,100596.13
2022-10-02T14:32:42.101Z,100595.56
2022-10-02T14:35:30.866Z,100594.97
2022-10-02T14:38:32.013Z,100574.97
2022-10-02T14:41:10.609Z,100592.28
2022-10-02T14:44:23.047Z,100595.44
2022-10-02T14:47:13.276Z,100602.22
2022-10-02T14:50:01.099Z,100605.03
2022-10-02T14:52:44.954Z,100612.13
2022-10-02T14:55:27.928Z,100610.66
2022-10-02T14:58:16.998Z,100622.50
2022-10-02T15:01:06.750Z,100612.97
2022-10-02T15:04:01.337Z,100619.28
2022-10-02T15:06:43.778Z,100625.44
2022-10-02T15:09:17.190Z,100624.50
2022-10-02T15:15:14.832Z,100627.06
2022-10-02T15:17:57.213Z,100623.44
2022-10-02T15:20:32.027Z,100618.22
2022-10-02T15:23:03.263Z,100626.13
2022-10-02T15:25:49.450Z,100623.44
2022-10-02T15:28:37.080Z,100623.69
2022-10-02T15:31:18.706Z,100624.78
2022-10-02T15:33:57.981Z,100619.53
2022-10-02T15:36:46.653Z,100624.81
2022-10-02T15:39:36.038Z,100642.81
2022-10-02T15:42:09.435Z,100643.03
2022-10-02T15:45:16.968Z,100646.69
2022-10-02T15:48:10.120Z,100653.16
2022-10-02T15:50:49.654Z,100640.69
2022-10-02T15:53:37.147Z,100650.59
2022-10-02T15:56:22.728Z,100650.56
2022-10-02T15:59:07.632Z,100648.72
2022-10-02T16:01:51.016Z,100650.69
2022-10-02T16:04:31.023Z,100657.88
2022-10-02T16:07:43.566Z,100661.44
2022-10-02T16:10:21.781Z,100663.13
2022-10-02T16:13:06.159Z,100661.41
2022-10-02T16:15:49.914Z,100666.81
2022-10-02T16:18:30.267Z,100667.69
2022-10-02T16:21:39.722Z,100670.34
2022-10-02T16:24:25.110Z,100670.44
2022-10-02T16:27:30.133Z,100672.28
2022-10-02T16:30:11.911Z,100661.63
2022-10-02T16:33:15.627Z,100669.72
2022-10-02T16:36:23.540Z,100660.88
2022-10-02T16:39:14.457Z,100675.25
2022-10-02T16:41:58.734Z,100670.09
2022-10-02T16:44:59.498Z,100669.31
2022-10-02T16:47:33.822Z,100689.06
2022-10-02T16:50:14.823Z,100683.00
2022-10-02T16:52:50.096Z,100693.84
2022-10-02T16:55:25.465Z,100692.22
2022-10-02T16:58:02.277Z,100698.56
2022-10-02T17:00:33.613Z,100695.94
2022-10-02T17:03:12.368Z,100701.47
2022-10-02T17:05:49.561Z,100702.47
2022-10-02T17:08:25.145Z,100702.72
2022-10-02T17:11:08.105Z,100710.63
2022-10-02T17:13:48.825Z,100711.63
2022-10-02T17:16:35.129Z,100716.31
2022-10-02T17:19:20.243Z,100716.44
2022-10-02T17:21:53.522Z,100723.72
2022-10-02T17:24:34.745Z,100721.22
2022-10-02T17:27:15.130Z,100723.03
2022-10-02T17:29:51.546Z,100722.31
2022-10-02T17:32:35.819Z,100735.75
2022-10-02T17:35:15.028Z,100738.66
2022-10-02T17:38:24.216Z,100736.06
2022-10-02T17:41:06.460Z,100735.34
2022-10-02T17:43:43.675Z,100744.50
2022-10-02T17:46:43.284Z,100753.66
2022-10-02T17:49:22.615Z,100760.94
2022-10-02T17:52:19.376Z,100766.34
2022-10-02T17:55:15.262Z,100772.88
2022-10-02T17:57:58.411Z,100770.38
2022-10-02T18:00:27.816Z,100773.31
2022-10-02T18:03:10.017Z,100780.69
2022-10-02T18:05:50.978Z,100778.91
2022-10-02T18:08:48.171Z,100798.84
2022-10-02T18:11:34.210Z,100795.47
2022-10-02T18:14:12.825Z,100803.56
2022-10-02T18:16:56.927Z,100804.78
2022-10-02T18:20:02.723Z,100806.09
2022-10-02T18:22:59.881Z,100812.66
2022-10-02T18:25:54.918Z,100815.66
2022-10-02T18:28:37.276Z,100818.63
2022-10-02T18:31:44.311Z,100820.63
2022-10-02T18:34:40.227Z,100818.03
2022-10-02T18:37:28.067Z,100826.25
2022-10-02T18:40:14.065Z,100827.16
2022-10-02T18:43:08.156Z,100832.47
2022-10-02T18:45:48.111Z,100841.66
2022-10-02T18:48:36.799Z,100835.75
2022-10-02T18:51:24.630Z,100871.00
2022-10-02T18:54:03.530Z,100873.06
2022-10-02T18:56:53.089Z,100869.75
2022-10-02T18:59:34.292Z,100862.84
2022-10-02T19:02:18.818Z,100862.84
2022-10-02T19:05:03.611Z,100875.22
2022-10-02T19:07:41.667Z,100861.34
2022-10-02T19:10:40.284Z,100875.38
2022-10-02T19:13:18.111Z,100881.78
2022-10-02T19:15:50.705Z,100882.78
2022-10-02T19:18:20.520Z,100899.44
2022-10-02T19:20:57.165Z,100901.47
2022-10-02T19:23:32.988Z,100895.34
2022-10-02T19:26:07.084Z,100899.84
2022-10-02T19:28:45.566Z,100897.38
2022-10-02T19:31:22.725Z,100898.25
2022-10-02T19:33:56.883Z,100900.22
2022-10-02T19:36:32.314Z,100910.09
2022-10-02T19:39:03.930Z,100914.59
2022-10-02T19:41:43.893Z,100912.03
2022-10-02T19:44:25.304Z,100922.75
2022-10-02T19:46:55.421Z,100925.53
2022-10-02T19:49:26.146Z,100936.28
2022-10-02T19:51:54.850Z,100938.13
2022-10-02T19:54:30.069Z,100946.94
2022-10-02T19:57:04.219Z,100946.94
2022-10-02T19:59:48.637Z,100947.78
2022-10-02T20:02:24.092Z,100954.94
2022-10-02T20:04:55.641Z,100963.50
2022-10-02T20:07:27.288Z,100949.50
2022-10-02T20:09:59.753Z,100966.25
2022-10-02T20:12:33.054Z,100969.72
2022-10-02T20:16:35.998Z,100966.38
2022-10-02T20:19:05.611Z,100969.97
2022-10-02T20:21:39.254Z,100969.03
2022-10-02T20:24:16.298Z,100983.25
2022-10-02T20:26:47.320Z,100981.47
2022-10-02T20:29:20.564Z,100987.56
2022-10-02T20:31:53.846Z,100996.63
2022-10-02T20:34:29.319Z,100998.53
2022-10-02T20:37:04.821Z,101001.19
2022-10-02T20:39:36.481Z,100995.25
2022-10-02T20:42:10.108Z,101009.41
2022-10-02T20:44:39.307Z,101007.69
2022-10-02T20:47:44.131Z,101006.00
2022-10-02T20:50:33.313Z,101018.38
2022-10-02T20:53:30.753Z,101013.09
2022-10-02T20:56:05.601Z,101015.75
2022-10-02T20:59:09.425Z,101024.66
2022-10-02T21:01:47.354Z,101033.56
2022-10-02T21:04:41.756Z,101035.47
2022-10-02T21:07:35.069Z,101040.88
2022-10-02T21:10:25.609Z,101035.56
2022-10-02T21:13:24.466Z,101039.06
2022-10-02T21:16:26.824Z,101033.78
2022-10-02T21:19:26.304Z,101048.91
2022-10-02T21:22:26.056Z,101048.94
2022-10-02T21:25:24.986Z,101050.81
2022-10-02T21:28:20.847Z,101044.63
2022-10-02T21:31:01.065Z,101052.69
2022-10-02T21:33:32.754Z,101051.00
2022-10-02T21:36:08.717Z,101057.28
2022-10-02T21:39:12.025Z,101055.53
2022-10-02T21:42:12.076Z,101058.16
2022-10-02T21:45:18.584Z,101064.31
2022-10-02T21:48:28.060Z,101069.56
2022-10-02T21:51:39.899Z,101069.41
2022-10-02T21:54:49.188Z,101065.63
2022-10-02T21:57:41.925Z,101064.59
2022-10-02T22:00:16.844Z,101069.03
2022-10-02T22:03:23.513Z,101073.31
2022-10-02T22:06:21.767Z,101078.53
2022-10-02T22:09:04.276Z,101085.69
2022-10-02T22:11:40.794Z,101095.63
2022-10-02T22:14:14.169Z,101094.88
2022-10-02T22:16:56.118Z,101089.63
2022-10-02T22:19:44.492Z,101088.91
2022-10-02T22:22:22.923Z,101091.78
2022-10-02T22:25:11.025Z,101090.06
2022-10-02T22:28:03.677Z,101102.59
2022-10-02T22:30:39.089Z,101102.63
2022-10-02T22:33:23.229Z,101099.00
2022-10-02T22:36:14.887Z,101110.50
2022-10-02T22:38:47.606Z,101104.91
2022-10-02T22:41:26.216Z,101115.41
2022-10-02T22:43:59.961Z,101114.44
2022-10-02T22:46:41.181Z,101117.91
2022-10-02T22:49:22.300Z,101124.94
2022-10-02T22:52:00.414Z,101122.28
2022-10-02T22:54:45.134Z,101127.56
2022-10-02T22:57:27.824Z,101131.94
2022-10-02T23:00:04.648Z,101132.78
2022-10-02T23:02:36.651Z,101141.63
2022-10-02T23:05:12.744Z,101146.88
2022-10-02T23:07:49.719Z,101157.50
2022-10-02T23:10:28.439Z,101161.03
2022-10-02T23:13:04.526Z,101111.56
2022-10-02T23:15:42.579Z,101152.09
2022-10-02T23:18:35.370Z,101157.38
2022-10-02T23:21:11.706Z,101150.25
2022-10-02T23:23:52.962Z,101148.41
2022-10-02T23:26:31.409Z,101146.66
2022-10-02T23:29:13.831Z,101141.41
2022-10-02T23:31:51.008Z,101143.22
2022-10-02T23:34:30.879Z,101143.22
2022-10-02T23:37:03.555Z,101140.59
2022-10-02T23:39:39.879Z,101155.66
2022-10-02T23:42:15.100Z,101160.97
2022-10-02T23:44:47.291Z,101162.72
2022-10-02T23:47:27.125Z,101159.16
2022-10-02T23:49:56.611Z,101167.06
2022-10-02T23:52:48.893Z,101173.19
2022-10-02T23:55:32.548Z,101179.38
2022-10-02T23:58:16.107Z,101178.44
